Time,TemperatureF,DewpointF,PressureIn,WindDirection,WindDirectionDegrees,WindSpeedMPH,WindSpeedGustMPH,Humidity,HourlyPrecipIn,Conditions,Clouds,dailyrainin,SoftwareType,DateUTC
2013-02-22 00:01:00,49.2,28.7,29.85,North,11,2.0,10.0,45,0.00,,,0.00,Wunderground v.1.15,2013-02-22 06:01:00,
2013-02-22 00:07:00,50.7,27.8,29.84,NNE,27,3.0,10.0,41,0.00,,,0.00,Wunderground v.1.15,2013-02-22 06:07:00,
2013-02-22 00:13:00,51.5,28.6,29.84,NE,39,6.0,10.0,41,0.00,,,0.00,Wunderground v.1.15,2013-02-22 06:13:00,
2013-02-22 00:19:00,50.8,30.2,29.85,WSW,243,3.0,10.0,45,0.00,,,0.00,Wunderground v.1.15,2013-02-22 06:19:00,
2013-02-22 00:25:00,50.0,28.9,29.83,NNE,23,2.0,10.0,44,0.00,,,0.00,Wunderground v.1.15,2013-02-22 06:25:00,
2013-02-22 00:31:00,50.7,29.6,29.84,North,6,7.0,10.0,44,0.00,,,0.00,Wunderground v.1.15,2013-02-22 06:31:00,
2013-02-22 00:37:00,50.7,30.1,29.84,NE,41,7.0,10.0,45,0.00,,,0.00,Wunderground v.1.15,2013-02-22 06:37:00,
2013-02-22 00:43:00,49.7,30.8,29.86,NNE,19,5.0,10.0,48,0.00,,,0.00,Wunderground v.1.15,2013-02-22 06:43:00,
2013-02-22 00:48:00,48.8,31.0,29.86,NE,36,4.0,10.0,50,0.00,,,0.00,Wunderground v.1.15,2013-02-22 06:48:00,
2013-02-22 00:54:00,48.5,31.7,29.88,NNE,27,5.0,10.0,52,0.00,,,0.00,Wunderground v.1.15,2013-02-22 06:54:00,
2013-02-22 01:00:00,48.1,31.8,29.88,NE,48,5.0,5.0,53,0.00,,,0.00,Wunderground v.1.15,2013-02-22 07:00:00,
2013-02-22 01:06:00,47.7,32.3,29.89,ENE,68,4.0,10.0,55,0.00,,,0.00,Wunderground v.1.15,2013-02-22 07:06:00,
2013-02-22 01:12:00,47.1,32.6,29.89,NE,51,3.0,10.0,57,0.00,,,0.00,Wunderground v.1.15,2013-02-22 07:12:00,
2013-02-22 01:18:00,46.8,33.2,29.91,NNE,29,3.0,10.0,59,0.00,,,0.00,Wunderground v.1.15,2013-02-22 07:18:00,
2013-02-22 01:24:00,46.5,34.2,29.91,NE,51,4.0,10.0,62,0.00,,,0.00,Wunderground v.1.15,2013-02-22 07:24:00,
2013-02-22 01:30:00,46.3,34.8,29.91,NE,42,4.0,10.0,64,0.00,,,0.00,Wunderground v.1.15,2013-02-22 07:30:00,
2013-02-22 01:35:00,46.2,35.1,29.91,NE,44,4.0,10.0,65,0.00,,,0.00,Wunderground v.1.15,2013-02-22 07:35:00,
2013-02-22 01:41:00,46.2,35.5,29.92,NE,47,4.0,10.0,66,0.00,,,0.00,Wunderground v.1.15,2013-02-22 07:41:00,
2013-02-22 01:47:00,46.2,35.8,29.92,NE,54,5.0,10.0,67,0.00,,,0.00,Wunderground v.1.15,2013-02-22 07:47:00,
2013-02-22 01:52:00,45.9,35.9,29.92,ENE,62,4.0,10.0,68,0.00,,,0.00,Wunderground v.1.15,2013-02-22 07:52:00,
2013-02-22 01:58:00,45.6,36.0,29.92,NE,48,4.0,10.0,69,0.00,,,0.00,Wunderground v.1.15,2013-02-22 07:58:00,
2013-02-22 02:04:00,45.5,36.3,29.92,ENE,60,4.0,10.0,70,0.00,,,0.00,Wunderground v.1.15,2013-02-22 08:04:00,
2013-02-22 02:10:00,45.5,36.3,29.93,ENE,66,3.0,10.0,70,0.00,,,0.00,Wunderground v.1.15,2013-02-22 08:10:00,
2013-02-22 02:16:00,45.4,36.5,29.93,ENE,74,3.0,10.0,71,0.00,,,0.00,Wunderground v.1.15,2013-02-22 08:16:00,
2013-02-22 02:22:00,45.1,37.0,29.93,ENE,62,3.0,10.0,73,0.00,,,0.00,Wunderground v.1.15,2013-02-22 08:22:00,
2013-02-22 02:28:00,45.2,37.4,29.93,NE,47,4.0,10.0,74,0.00,,,0.00,Wunderground v.1.15,2013-02-22 08:28:00,
2013-02-22 02:33:00,45.3,37.8,29.93,NE,44,6.0,10.0,75,0.00,,,0.00,Wunderground v.1.15,2013-02-22 08:33:00,
2013-02-22 02:39:00,45.1,38.0,29.92,NE,46,6.0,10.0,76,0.00,,,0.00,Wunderground v.1.15,2013-02-22 08:39:00,
2013-02-22 02:45:00,44.9,37.8,29.92,NE,35,6.0,10.0,76,0.00,,,0.00,Wunderground v.1.15,2013-02-22 08:45:00,
2013-02-22 02:51:00,44.6,37.5,29.92,NE,48,6.0,10.0,76,0.00,,,0.00,Wunderground v.1.15,2013-02-22 08:51:00,
2013-02-22 02:57:00,44.2,37.4,29.92,ENE,60,4.0,10.0,77,0.00,,,0.00,Wunderground v.1.15,2013-02-22 08:57:00,
2013-02-22 03:03:00,43.9,37.8,29.93,NE,44,4.0,10.0,79,0.00,,,0.00,Wunderground v.1.15,2013-02-22 09:03:00,
2013-02-22 03:09:00,43.6,37.8,29.93,NE,34,3.0,10.0,80,0.00,,,0.00,Wunderground v.1.15,2013-02-22 09:09:00,
2013-02-22 03:15:00,43.3,37.9,29.94,East,79,3.0,10.0,81,0.00,,,0.00,Wunderground v.1.15,2013-02-22 09:15:00,
2013-02-22 03:20:00,43.0,37.9,29.94,NE,56,1.0,10.0,82,0.00,,,0.00,Wunderground v.1.15,2013-02-22 09:20:00,
2013-02-22 03:26:00,42.5,37.7,29.95,ENE,76,1.0,10.0,83,0.00,,,0.00,Wunderground v.1.15,2013-02-22 09:26:00,
2013-02-22 03:32:00,42.3,37.8,29.95,NE,49,1.0,10.0,84,0.00,,,0.00,Wunderground v.1.15,2013-02-22 09:32:00,
2013-02-22 03:38:00,41.8,37.6,29.95,NE,46,1.0,10.0,85,0.00,,,0.00,Wunderground v.1.15,2013-02-22 09:38:00,
2013-02-22 03:44:00,41.6,37.7,29.95,NE,42,2.0,10.0,86,0.00,,,0.00,Wunderground v.1.15,2013-02-22 09:44:00,
2013-02-22 03:50:00,41.7,38.1,29.95,NE,38,4.0,10.0,87,0.00,,,0.00,Wunderground v.1.15,2013-02-22 09:50:00,
2013-02-22 03:56:00,41.7,38.4,29.95,NE,40,5.0,10.0,88,0.00,,,0.00,Wunderground v.1.15,2013-02-22 09:56:00,
2013-02-22 04:02:00,41.7,38.4,29.94,NE,44,5.0,10.0,88,0.00,,,0.00,Wunderground v.1.15,2013-02-22 10:02:00,
2013-02-22 04:07:00,41.6,38.3,29.94,North,11,6.0,10.0,88,0.00,,,0.00,Wunderground v.1.15,2013-02-22 10:07:00,
2013-02-22 04:13:00,41.5,38.5,29.95,NNE,25,6.0,10.0,89,0.00,,,0.00,Wunderground v.1.15,2013-02-22 10:13:00,
2013-02-22 04:19:00,41.7,38.4,29.96,NE,48,7.0,10.0,88,0.00,,,0.00,Wunderground v.1.15,2013-02-22 10:19:00,
2013-02-22 04:25:00,41.9,38.3,29.96,NNE,18,8.0,10.0,87,0.00,,,0.00,Wunderground v.1.15,2013-02-22 10:25:00,
2013-02-22 04:31:00,42.0,38.1,29.96,NNE,13,8.0,10.0,86,0.00,,,0.00,Wunderground v.1.15,2013-02-22 10:31:00,
2013-02-22 04:37:00,41.9,37.7,29.97,NE,46,8.0,12.0,85,0.00,,,0.00,Wunderground v.1.15,2013-02-22 10:37:00,
2013-02-22 04:43:00,41.7,37.5,29.97,NNE,32,9.0,13.0,85,0.00,,,0.00,Wunderground v.1.15,2013-02-22 10:43:00,
2013-02-22 04:49:00,41.6,37.1,29.97,North,1,9.0,13.0,84,0.00,,,0.00,Wunderground v.1.15,2013-02-22 10:49:00,
2013-02-22 04:55:00,41.5,37.3,29.98,NNE,20,9.0,10.0,85,0.00,,,0.00,Wunderground v.1.15,2013-02-22 10:55:00,
2013-02-22 05:01:00,41.3,36.8,29.98,NNE,32,9.0,13.0,84,0.00,,,0.00,Wunderground v.1.15,2013-02-22 11:01:00,
2013-02-22 05:06:00,41.1,36.6,29.99,NNE,27,9.0,13.0,84,0.00,,,0.00,Wunderground v.1.15,2013-02-22 11:06:00,
2013-02-22 05:12:00,40.8,36.3,29.99,NNE,31,9.0,10.0,84,0.00,,,0.00,Wunderground v.1.15,2013-02-22 11:12:00,
2013-02-22 05:17:00,40.6,35.8,30.00,North,1,8.0,12.0,83,0.00,,,0.00,Wunderground v.1.15,2013-02-22 11:17:00,
2013-02-22 05:22:00,40.3,35.5,30.00,North,350,9.0,14.0,83,0.00,,,0.00,Wunderground v.1.15,2013-02-22 11:22:00,
2013-02-22 05:28:00,40.0,35.3,30.01,NNE,27,8.0,14.0,83,0.00,,,0.00,Wunderground v.1.15,2013-02-22 11:28:00,
2013-02-22 05:33:00,39.7,35.0,30.01,North,1,8.0,10.0,83,0.00,,,0.00,Wunderground v.1.15,2013-02-22 11:33:00,
2013-02-22 05:39:00,39.3,34.6,30.01,NE,39,8.0,10.0,83,0.00,,,0.00,Wunderground v.1.15,2013-02-22 11:39:00,
2013-02-22 05:45:00,38.9,34.2,30.02,NNE,33,8.0,10.0,83,0.00,,,0.00,Wunderground v.1.15,2013-02-22 11:45:00,
2013-02-22 05:51:00,38.6,34.2,30.02,NNE,27,8.0,10.0,84,0.00,,,0.00,Wunderground v.1.15,2013-02-22 11:51:00,
2013-02-22 05:57:00,38.4,34.3,30.02,NNE,22,8.0,12.0,85,0.00,,,0.00,Wunderground v.1.15,2013-02-22 11:57:00,
2013-02-22 06:03:00,38.2,34.1,30.02,NE,38,9.0,11.0,85,0.00,,,0.00,Wunderground v.1.15,2013-02-22 12:03:00,
2013-02-22 06:08:00,38.1,34.3,30.03,NE,39,8.0,11.0,86,0.00,,,0.00,Wunderground v.1.15,2013-02-22 12:08:00,
2013-02-22 06:14:00,37.8,34.0,30.02,NNE,27,7.0,11.0,86,0.00,,,0.00,Wunderground v.1.15,2013-02-22 12:14:00,
2013-02-22 06:20:00,37.7,34.2,30.03,North,11,8.0,13.0,87,0.00,,,0.00,Wunderground v.1.15,2013-02-22 12:20:00,
2013-02-22 06:26:00,37.5,34.0,30.03,NNE,18,9.0,13.0,87,0.00,,,0.00,Wunderground v.1.15,2013-02-22 12:26:00,
2013-02-22 06:32:00,37.2,33.4,30.03,NE,43,10.0,15.0,86,0.00,,,0.00,Wunderground v.1.15,2013-02-22 12:32:00,
2013-02-22 06:38:00,37.0,33.2,30.03,NNE,18,11.0,15.0,86,0.00,,,0.00,Wunderground v.1.15,2013-02-22 12:38:00,
2013-02-22 06:43:00,36.8,33.0,30.03,North,349,11.0,13.0,86,0.00,,,0.00,Wunderground v.1.15,2013-02-22 12:43:00,
2013-02-22 06:49:00,36.5,32.4,30.04,NNE,17,9.0,13.0,85,0.00,,,0.00,Wunderground v.1.15,2013-02-22 12:49:00,
2013-02-22 06:55:00,36.2,32.1,30.04,NNE,33,9.0,12.0,85,0.00,,,0.00,Wunderground v.1.15,2013-02-22 12:55:00,
2013-02-22 07:00:00,36.1,32.0,30.04,NE,36,9.0,10.0,85,0.00,,,0.00,Wunderground v.1.15,2013-02-22 13:00:00,
2013-02-22 07:06:00,35.9,31.8,30.05,NNE,21,9.0,12.0,85,0.00,,,0.00,Wunderground v.1.15,2013-02-22 13:06:00,
2013-02-22 07:12:00,35.7,31.6,30.05,NNE,27,10.0,13.0,85,0.00,,,0.00,Wunderground v.1.15,2013-02-22 13:12:00,
2013-02-22 07:18:00,35.5,31.1,30.05,NNE,20,10.0,14.0,84,0.00,,,0.00,Wunderground v.1.15,2013-02-22 13:18:00,
2013-02-22 07:24:00,35.3,30.9,30.05,NE,36,11.0,11.0,84,0.00,,,0.00,Wunderground v.1.15,2013-02-22 13:24:00,
2013-02-22 07:30:00,35.1,30.8,30.05,North,5,10.0,14.0,84,0.00,,,0.00,Wunderground v.1.15,2013-02-22 13:30:00,
2013-02-22 07:36:00,34.9,30.6,30.06,North,359,10.0,14.0,84,0.00,,,0.00,Wunderground v.1.15,2013-02-22 13:36:00,
2013-02-22 07:42:00,34.7,30.4,30.06,NNE,31,9.0,13.0,84,0.00,,,0.00,Wunderground v.1.15,2013-02-22 13:42:00,
2013-02-22 07:48:00,34.7,30.1,30.07,NNE,29,9.0,14.0,83,0.00,,,0.00,Wunderground v.1.15,2013-02-22 13:48:00,
2013-02-22 07:54:00,34.5,29.9,30.07,NNE,25,9.0,10.0,83,0.00,,,0.00,Wunderground v.1.15,2013-02-22 13:54:00,
2013-02-22 08:00:00,34.5,29.9,30.07,North,360,9.0,10.0,83,0.00,,,0.00,Wunderground v.1.15,2013-02-22 14:00:00,
2013-02-22 08:05:00,34.3,29.7,30.07,NNE,32,9.0,12.0,83,0.00,,,0.00,Wunderground v.1.15,2013-02-22 14:05:00,
2013-02-22 08:10:00,34.2,29.6,30.07,NNE,27,9.0,10.0,83,0.00,,,0.00,Wunderground v.1.15,2013-02-22 14:10:00,
2013-02-22 08:16:00,34.2,29.6,30.08,NNE,27,9.0,12.0,83,0.00,,,0.00,Wunderground v.1.15,2013-02-22 14:16:00,
2013-02-22 08:22:00,34.2,29.6,30.08,NNE,19,9.0,11.0,83,0.00,,,0.00,Wunderground v.1.15,2013-02-22 14:22:00,
2013-02-22 08:28:00,34.3,30.0,30.08,North,8,7.0,11.0,84,0.00,,,0.00,Wunderground v.1.15,2013-02-22 14:28:00,
2013-02-22 08:34:00,34.0,29.4,30.08,NNE,25,8.0,14.0,83,0.00,,,0.00,Wunderground v.1.15,2013-02-22 14:34:00,
2013-02-22 08:40:00,33.6,28.7,30.08,North,8,9.0,12.0,82,0.00,,,0.00,Wunderground v.1.15,2013-02-22 14:40:00,
2013-02-22 08:45:00,33.5,28.6,30.08,NNE,29,10.0,12.0,82,0.00,,,0.00,Wunderground v.1.15,2013-02-22 14:45:00,
2013-02-22 08:51:00,33.5,28.6,30.08,NNE,13,10.0,10.0,82,0.00,,,0.00,Wunderground v.1.15,2013-02-22 14:51:00,
2013-02-22 08:57:00,33.8,28.9,30.08,NNE,22,8.0,10.0,82,0.00,,,0.00,Wunderground v.1.15,2013-02-22 14:57:00,
2013-02-22 09:03:00,33.9,28.4,30.08,North,4,8.0,16.0,80,0.00,,,0.00,Wunderground v.1.15,2013-02-22 15:03:00,
2013-02-22 09:09:00,33.9,27.8,30.09,NNE,24,10.0,16.0,78,0.00,,,0.00,Wunderground v.1.15,2013-02-22 15:09:00,
2013-02-22 09:15:00,33.9,27.4,30.09,NE,36,12.0,15.0,77,0.00,,,0.00,Wunderground v.1.15,2013-02-22 15:15:00,
2013-02-22 09:21:00,34.0,27.5,30.09,NNE,15,12.0,12.0,77,0.00,,,0.00,Wunderground v.1.15,2013-02-22 15:21:00,
2013-02-22 09:27:00,34.4,27.9,30.09,NE,48,9.0,12.0,77,0.00,,,0.00,Wunderground v.1.15,2013-02-22 15:27:00,
2013-02-22 09:33:00,34.5,27.7,30.09,NNE,23,8.0,11.0,76,0.00,,,0.00,Wunderground v.1.15,2013-02-22 15:33:00,
2013-02-22 09:38:00,34.6,27.8,30.09,NNE,24,8.0,11.0,76,0.00,,,0.00,Wunderground v.1.15,2013-02-22 15:38:00,
2013-02-22 09:44:00,34.6,27.2,30.09,NNE,27,9.0,12.0,74,0.00,,,0.00,Wunderground v.1.15,2013-02-22 15:44:00,
2013-02-22 09:49:00,34.9,27.5,30.09,North,6,9.0,12.0,74,0.00,,,0.00,Wunderground v.1.15,2013-02-22 15:49:00,
2013-02-22 09:55:00,35.0,27.2,30.08,NNE,19,9.0,12.0,73,0.00,,,0.00,Wunderground v.1.15,2013-02-22 15:55:00,
2013-02-22 10:01:00,35.3,26.5,30.08,North,354,9.0,12.0,70,0.00,,,0.00,Wunderground v.1.15,2013-02-22 16:01:00,
2013-02-22 10:07:00,35.7,26.9,30.08,NNE,15,9.0,12.0,70,0.00,,,0.00,Wunderground v.1.15,2013-02-22 16:07:00,
2013-02-22 10:13:00,35.8,26.6,30.08,NNW,335,10.0,13.0,69,0.00,,,0.00,Wunderground v.1.15,2013-02-22 16:13:00,
2013-02-22 10:19:00,36.1,26.6,30.08,NNW,348,11.0,13.0,68,0.00,,,0.00,Wunderground v.1.15,2013-02-22 16:19:00,
2013-02-22 10:25:00,36.5,26.9,30.08,NNE,32,9.0,10.0,68,0.00,,,0.00,Wunderground v.1.15,2013-02-22 16:25:00,
2013-02-22 10:30:00,36.5,26.6,30.08,NNE,25,10.0,11.0,67,0.00,,,0.00,Wunderground v.1.15,2013-02-22 16:30:00,
2013-02-22 10:35:00,36.6,26.7,30.08,NE,42,11.0,13.0,67,0.00,,,0.00,Wunderground v.1.15,2013-02-22 16:35:00,
2013-02-22 10:41:00,36.7,26.4,30.08,NNE,15,11.0,13.0,66,0.00,,,0.00,Wunderground v.1.15,2013-02-22 16:41:00,
2013-02-22 10:47:00,37.1,26.4,30.08,NNE,31,11.0,14.0,65,0.00,,,0.00,Wunderground v.1.15,2013-02-22 16:47:00,
2013-02-22 10:53:00,37.3,26.6,30.08,NNE,23,11.0,13.0,65,0.00,,,0.00,Wunderground v.1.15,2013-02-22 16:53:00,
2013-02-22 10:59:00,38.0,27.6,30.08,NNE,27,11.0,13.0,66,0.00,,,0.00,Wunderground v.1.15,2013-02-22 16:59:00,
2013-02-22 11:05:00,38.3,27.9,30.08,NNE,25,10.0,13.0,66,0.00,,,0.00,Wunderground v.1.15,2013-02-22 17:05:00,
2013-02-22 11:11:00,38.7,27.6,30.08,NNE,19,10.0,10.0,64,0.00,,,0.00,Wunderground v.1.15,2013-02-22 17:11:00,
2013-02-22 11:17:00,38.7,27.2,30.08,North,11,10.0,13.0,63,0.00,,,0.00,Wunderground v.1.15,2013-02-22 17:17:00,
2013-02-22 11:23:00,39.3,27.4,30.08,NNE,14,10.0,12.0,62,0.00,,,0.00,Wunderground v.1.15,2013-02-22 17:23:00,
2013-02-22 11:28:00,39.6,26.8,30.08,NE,39,10.0,12.0,60,0.00,,,0.00,Wunderground v.1.15,2013-02-22 17:28:00,
2013-02-22 11:34:00,39.7,27.3,30.08,NNE,21,10.0,13.0,61,0.00,,,0.00,Wunderground v.1.15,2013-02-22 17:34:00,
2013-02-22 11:40:00,40.1,26.5,30.08,North,9,11.0,11.0,58,0.00,,,0.00,Wunderground v.1.15,2013-02-22 17:40:00,
2013-02-22 11:46:00,40.6,27.0,30.08,NNW,330,12.0,15.0,58,0.00,,,0.00,Wunderground v.1.15,2013-02-22 17:46:00,
2013-02-22 11:52:00,41.1,27.9,30.08,NNE,30,10.0,13.0,59,0.00,,,0.00,Wunderground v.1.15,2013-02-22 17:52:00,
2013-02-22 11:58:00,41.6,27.9,30.07,North,355,9.0,13.0,58,0.00,,,0.00,Wunderground v.1.15,2013-02-22 17:58:00,
2013-02-22 12:04:00,41.4,27.7,30.07,NE,51,9.0,10.0,58,0.00,,,0.00,Wunderground v.1.15,2013-02-22 18:04:00,
2013-02-22 12:09:00,42.0,27.0,30.07,NNE,21,9.0,11.0,55,0.00,,,0.00,Wunderground v.1.15,2013-02-22 18:09:00,
2013-02-22 12:15:00,42.4,27.4,30.07,NNE,27,9.0,11.0,55,0.00,,,0.00,Wunderground v.1.15,2013-02-22 18:15:00,
2013-02-22 12:21:00,43.1,28.5,30.06,ENE,73,8.0,12.0,56,0.00,,,0.00,Wunderground v.1.15,2013-02-22 18:21:00,
2013-02-22 12:27:00,43.5,27.5,30.06,NE,54,9.0,12.0,53,0.00,,,0.00,Wunderground v.1.15,2013-02-22 18:27:00,
2013-02-22 12:33:00,43.4,27.4,30.06,East,81,9.0,10.0,53,0.00,,,0.00,Wunderground v.1.15,2013-02-22 18:33:00,
2013-02-22 12:39:00,44.5,28.9,30.06,ENE,73,8.0,10.0,54,0.00,,,0.00,Wunderground v.1.15,2013-02-22 18:39:00,
2013-02-22 12:44:00,44.9,28.3,30.06,NNE,18,7.0,10.0,52,0.00,,,0.00,Wunderground v.1.15,2013-02-22 18:44:00,
2013-02-22 12:49:00,45.2,28.6,30.05,NE,48,6.0,12.0,52,0.00,,,0.00,Wunderground v.1.15,2013-02-22 18:49:00,
2013-02-22 12:55:00,45.3,29.2,30.04,East,93,6.0,12.0,53,0.00,,,0.00,Wunderground v.1.15,2013-02-22 18:55:00,
2013-02-22 13:01:00,45.5,28.9,30.04,NE,51,6.0,8.0,52,0.00,,,0.00,Wunderground v.1.15,2013-02-22 19:01:00,
2013-02-22 13:07:00,46.3,28.7,30.04,East,91,6.0,10.0,50,0.00,,,0.00,Wunderground v.1.15,2013-02-22 19:07:00,
2013-02-22 13:13:00,46.2,28.6,30.03,ENE,60,7.0,12.0,50,0.00,,,0.00,Wunderground v.1.15,2013-02-22 19:13:00,
2013-02-22 13:19:00,46.4,29.2,30.03,NE,51,6.0,12.0,51,0.00,,,0.00,Wunderground v.1.15,2013-02-22 19:19:00,
2013-02-22 13:25:00,46.9,29.2,30.02,NNE,21,6.0,10.0,50,0.00,,,0.00,Wunderground v.1.15,2013-02-22 19:25:00,
2013-02-22 13:31:00,48.0,30.2,30.02,NNE,25,6.0,7.0,50,0.00,,,0.00,Wunderground v.1.15,2013-02-22 19:31:00,
2013-02-22 13:37:00,48.3,30.0,30.02,NE,34,6.0,10.0,49,0.00,,,0.00,Wunderground v.1.15,2013-02-22 19:37:00,
2013-02-22 13:43:00,48.5,29.7,30.01,NE,41,5.0,10.0,48,0.00,,,0.00,Wunderground v.1.15,2013-02-22 19:43:00,
2013-02-22 13:49:00,48.6,30.3,30.01,North,355,7.0,10.0,49,0.00,,,0.00,Wunderground v.1.15,2013-02-22 19:49:00,
2013-02-22 13:54:00,49.1,30.2,30.00,NE,49,7.0,10.0,48,0.00,,,0.00,Wunderground v.1.15,2013-02-22 19:54:00,
2013-02-22 14:00:00,49.5,30.1,30.00,North,349,7.0,7.0,47,0.00,,,0.00,Wunderground v.1.15,2013-02-22 20:00:00,
2013-02-22 14:06:00,49.6,30.7,30.00,East,83,7.0,10.0,48,0.00,,,0.00,Wunderground v.1.15,2013-02-22 20:06:00,
2013-02-22 14:12:00,50.0,30.5,30.00,NE,49,6.0,10.0,47,0.00,,,0.00,Wunderground v.1.15,2013-02-22 20:12:00,
2013-02-22 14:18:00,50.6,31.6,30.00,NE,56,7.0,10.0,48,0.00,,,0.00,Wunderground v.1.15,2013-02-22 20:18:00,
2013-02-22 14:24:00,50.6,31.1,29.99,NE,56,6.0,11.0,47,0.00,,,0.00,Wunderground v.1.15,2013-02-22 20:24:00,
2013-02-22 14:30:00,51.0,31.5,29.99,ESE,105,6.0,6.0,47,0.00,,,0.00,Wunderground v.1.15,2013-02-22 20:30:00,
2013-02-22 14:35:00,51.2,31.1,29.99,East,89,6.0,10.0,46,0.00,,,0.00,Wunderground v.1.15,2013-02-22 20:35:00,
2013-02-22 14:41:00,51.6,32.0,29.99,NE,46,6.0,10.0,47,0.00,,,0.00,Wunderground v.1.15,2013-02-22 20:41:00,
2013-02-22 14:47:00,51.8,31.1,29.99,North,10,6.0,10.0,45,0.00,,,0.00,Wunderground v.1.15,2013-02-22 20:47:00,
2013-02-22 14:53:00,52.1,32.5,29.99,East,82,5.0,10.0,47,0.00,,,0.00,Wunderground v.1.15,2013-02-22 20:53:00,
2013-02-22 14:59:00,52.1,31.9,29.99,NNE,31,5.0,10.0,46,0.00,,,0.00,Wunderground v.1.15,2013-02-22 20:59:00,
2013-02-22 15:05:00,52.3,32.1,29.98,NE,46,6.0,10.0,46,0.00,,,0.00,Wunderground v.1.15,2013-02-22 21:05:00,
2013-02-22 15:10:00,52.6,31.8,29.98,NE,55,6.0,6.0,45,0.00,,,0.00,Wunderground v.1.15,2013-02-22 21:10:00,
2013-02-22 15:15:00,53.0,32.8,29.99,NE,51,7.0,10.0,46,0.00,,,0.00,Wunderground v.1.15,2013-02-22 21:15:00,
2013-02-22 15:21:00,52.9,32.7,29.98,NE,55,7.0,10.0,46,0.00,,,0.00,Wunderground v.1.15,2013-02-22 21:21:00,
2013-02-22 15:27:00,52.6,32.4,29.98,NE,41,6.0,10.0,46,0.00,,,0.00,Wunderground v.1.15,2013-02-22 21:27:00,
2013-02-22 15:33:00,52.7,33.0,29.98,ENE,73,6.0,10.0,47,0.00,,,0.00,Wunderground v.1.15,2013-02-22 21:33:00,
2013-02-22 15:39:00,52.8,33.1,29.98,NE,46,6.0,10.0,47,0.00,,,0.00,Wunderground v.1.15,2013-02-22 21:39:00,
2013-02-22 15:45:00,53.2,32.9,29.98,NE,54,6.0,10.0,46,0.00,,,0.00,Wunderground v.1.15,2013-02-22 21:45:00,
2013-02-22 15:51:00,53.3,32.5,29.98,NE,46,6.0,10.0,45,0.00,,,0.00,Wunderground v.1.15,2013-02-22 21:51:00,
2013-02-22 15:57:00,53.4,33.1,29.98,ENE,76,5.0,10.0,46,0.00,,,0.00,Wunderground v.1.15,2013-02-22 21:57:00,
2013-02-22 16:02:00,53.3,32.5,29.98,NNE,31,5.0,10.0,45,0.00,,,0.00,Wunderground v.1.15,2013-02-22 22:02:00,
2013-02-22 16:08:00,53.0,32.8,29.98,NNE,25,6.0,10.0,46,0.00,,,0.00,Wunderground v.1.15,2013-02-22 22:08:00,
2013-02-22 16:14:00,53.0,33.3,29.97,ENE,63,6.0,10.0,47,0.00,,,0.00,Wunderground v.1.15,2013-02-22 22:14:00,
2013-02-22 16:20:00,52.7,32.5,29.98,NE,48,6.0,10.0,46,0.00,,,0.00,Wunderground v.1.15,2013-02-22 22:20:00,
2013-02-22 16:26:00,52.7,33.5,29.97,ENE,60,6.0,10.0,48,0.00,,,0.00,Wunderground v.1.15,2013-02-22 22:26:00,
2013-02-22 16:32:00,52.7,33.5,29.97,ENE,72,5.0,10.0,48,0.00,,,0.00,Wunderground v.1.15,2013-02-22 22:32:00,
2013-02-22 16:38:00,52.5,33.4,29.98,ENE,60,5.0,10.0,48,0.00,,,0.00,Wunderground v.1.15,2013-02-22 22:38:00,
2013-02-22 16:44:00,53.0,33.3,29.97,NE,36,6.0,10.0,47,0.00,,,0.00,Wunderground v.1.15,2013-02-22 22:44:00,
2013-02-22 16:50:00,52.8,33.1,29.98,NE,34,7.0,10.0,47,0.00,,,0.00,Wunderground v.1.15,2013-02-22 22:50:00,
2013-02-22 16:56:00,52.6,32.9,29.98,ENE,59,7.0,10.0,47,0.00,,,0.00,Wunderground v.1.15,2013-02-22 22:56:00,
2013-02-22 17:01:00,52.2,32.6,29.98,NE,54,6.0,10.0,47,0.00,,,0.00,Wunderground v.1.15,2013-02-22 23:01:00,
2013-02-22 17:07:00,51.9,32.8,29.98,NNE,32,6.0,10.0,48,0.00,,,0.00,Wunderground v.1.15,2013-02-22 23:07:00,
2013-02-22 17:13:00,51.8,33.2,29.98,ENE,63,6.0,10.0,49,0.00,,,0.00,Wunderground v.1.15,2013-02-22 23:13:00,
2013-02-22 17:19:00,51.5,33.0,29.98,East,79,5.0,10.0,49,0.00,,,0.00,Wunderground v.1.15,2013-02-22 23:19:00,
2013-02-22 17:25:00,51.3,33.3,29.99,ENE,65,5.0,10.0,50,0.00,,,0.00,Wunderground v.1.15,2013-02-22 23:25:00,
2013-02-22 17:30:00,51.3,33.3,30.00,NE,52,5.0,10.0,50,0.00,,,0.00,Wunderground v.1.15,2013-02-22 23:30:00,
2013-02-22 17:36:00,51.2,33.7,30.00,ENE,63,5.0,10.0,51,0.00,,,0.00,Wunderground v.1.15,2013-02-22 23:36:00,
2013-02-22 17:42:00,51.0,33.5,30.00,NE,53,5.0,10.0,51,0.00,,,0.00,Wunderground v.1.15,2013-02-22 23:42:00,
2013-02-22 17:48:00,50.7,33.2,30.00,ENE,70,4.0,10.0,51,0.00,,,0.00,Wunderground v.1.15,2013-02-22 23:48:00,
2013-02-22 17:54:00,50.3,33.3,30.00,ENE,57,4.0,10.0,52,0.00,,,0.00,Wunderground v.1.15,2013-02-22 23:54:00,
2013-02-22 18:00:00,50.1,33.1,30.00,NE,41,5.0,10.0,52,0.00,,,0.00,Wunderground v.1.15,2013-02-23 00:00:00,
2013-02-22 18:05:00,49.9,33.0,30.00,ENE,68,5.0,10.0,52,0.00,,,0.00,Wunderground v.1.15,2013-02-23 00:05:00,
2013-02-22 18:10:00,49.8,33.8,30.01,ENE,64,4.0,10.0,54,0.00,,,0.00,Wunderground v.1.15,2013-02-23 00:10:00,
2013-02-22 18:16:00,49.5,33.1,30.02,NE,46,4.0,10.0,53,0.00,,,0.00,Wunderground v.1.15,2013-02-23 00:16:00,
2013-02-22 18:22:00,49.3,33.3,30.02,NE,44,4.0,10.0,54,0.00,,,0.00,Wunderground v.1.15,2013-02-23 00:22:00,
2013-02-22 18:28:00,49.1,33.6,30.02,NE,54,3.0,10.0,55,0.00,,,0.00,Wunderground v.1.15,2013-02-23 00:28:00,
2013-02-22 18:34:00,48.8,34.2,30.02,NE,51,3.0,10.0,57,0.00,,,0.00,Wunderground v.1.15,2013-02-23 00:34:00,
2013-02-22 18:40:00,48.6,34.0,30.02,NE,51,3.0,10.0,57,0.00,,,0.00,Wunderground v.1.15,2013-02-23 00:40:00,
2013-02-22 18:45:00,48.4,34.3,30.02,ENE,65,3.0,10.0,58,0.00,,,0.00,Wunderground v.1.15,2013-02-23 00:45:00,
2013-02-22 18:51:00,48.2,34.1,30.03,NE,43,3.0,10.0,58,0.00,,,0.00,Wunderground v.1.15,2013-02-23 00:51:00,
2013-02-22 18:57:00,48.1,34.0,30.02,NE,49,3.0,10.0,58,0.00,,,0.00,Wunderground v.1.15,2013-02-23 00:57:00,
2013-02-22 19:03:00,48.0,34.3,30.03,ENE,66,3.0,10.0,59,0.00,,,0.00,Wunderground v.1.15,2013-02-23 01:03:00,
2013-02-22 19:09:00,47.8,34.2,30.03,ENE,60,3.0,10.0,59,0.00,,,0.00,Wunderground v.1.15,2013-02-23 01:09:00,
2013-02-22 19:15:00,47.7,34.1,30.04,NE,44,3.0,10.0,59,0.00,,,0.00,Wunderground v.1.15,2013-02-23 01:15:00,
2013-02-22 19:21:00,47.6,34.0,30.04,NE,48,3.0,10.0,59,0.00,,,0.00,Wunderground v.1.15,2013-02-23 01:21:00,
2013-02-22 19:27:00,47.6,33.5,30.04,NE,38,5.0,10.0,58,0.00,,,0.00,Wunderground v.1.15,2013-02-23 01:27:00,
2013-02-22 19:33:00,47.5,33.4,30.05,NE,46,6.0,10.0,58,0.00,,,0.00,Wunderground v.1.15,2013-02-23 01:33:00,
2013-02-22 19:39:00,47.5,33.0,30.05,NE,38,7.0,10.0,57,0.00,,,0.00,Wunderground v.1.15,2013-02-23 01:39:00,
2013-02-22 19:45:00,47.5,32.6,30.05,NNE,27,7.0,10.0,56,0.00,,,0.00,Wunderground v.1.15,2013-02-23 01:45:00,
2013-02-22 19:51:00,47.4,32.5,30.06,NE,41,7.0,10.0,56,0.00,,,0.00,Wunderground v.1.15,2013-02-23 01:51:00,
2013-02-22 19:57:00,47.3,32.4,30.06,NE,46,6.0,10.0,56,0.00,,,0.00,Wunderground v.1.15,2013-02-23 01:57:00,
2013-02-22 20:02:00,47.1,32.2,30.06,NNE,15,6.0,10.0,56,0.00,,,0.00,Wunderground v.1.15,2013-02-23 02:02:00,
2013-02-22 20:08:00,46.9,32.4,30.06,NE,49,6.0,10.0,57,0.00,,,0.00,Wunderground v.1.15,2013-02-23 02:08:00,
2013-02-22 20:13:00,46.7,32.3,30.06,NE,47,6.0,10.0,57,0.00,,,0.00,Wunderground v.1.15,2013-02-23 02:13:00,
2013-02-22 20:19:00,46.3,32.3,30.06,NNE,20,6.0,10.0,58,0.00,,,0.00,Wunderground v.1.15,2013-02-23 02:19:00,
2013-02-22 20:24:00,45.9,32.4,30.06,NNE,29,6.0,10.0,59,0.00,,,0.00,Wunderground v.1.15,2013-02-23 02:24:00,
2013-02-22 20:30:00,45.7,31.8,30.06,ENE,60,7.0,7.0,58,0.00,,,0.00,Wunderground v.1.15,2013-02-23 02:30:00,
2013-02-22 20:36:00,45.3,31.8,30.07,NE,48,6.0,10.0,59,0.00,,,0.00,Wunderground v.1.15,2013-02-23 02:36:00,
2013-02-22 20:42:00,45.2,31.7,30.07,NE,48,5.0,10.0,59,0.00,,,0.00,Wunderground v.1.15,2013-02-23 02:42:00,
2013-02-22 20:48:00,44.9,31.4,30.07,NE,54,5.0,10.0,59,0.00,,,0.00,Wunderground v.1.15,2013-02-23 02:48:00,
2013-02-22 20:53:00,44.7,31.7,30.07,NE,56,4.0,10.0,60,0.00,,,0.00,Wunderground v.1.15,2013-02-23 02:53:00,
2013-02-22 20:59:00,44.5,31.9,30.07,ENE,69,4.0,10.0,61,0.00,,,0.00,Wunderground v.1.15,2013-02-23 02:59:00,
2013-02-22 21:04:00,44.3,31.7,30.07,ENE,70,4.0,10.0,61,0.00,,,0.00,Wunderground v.1.15,2013-02-23 03:04:00,
2013-02-22 21:09:00,44.1,31.9,30.07,ENE,61,4.0,10.0,62,0.00,,,0.00,Wunderground v.1.15,2013-02-23 03:09:00,
2013-02-22 21:16:00,44.0,31.4,30.07,NE,44,5.0,10.0,61,0.00,,,0.00,Wunderground v.1.15,2013-02-23 03:16:00,
2013-02-22 21:21:00,43.9,31.3,30.08,ENE,74,5.0,10.0,61,0.00,,,0.00,Wunderground v.1.15,2013-02-23 03:21:00,
2013-02-22 21:27:00,43.7,31.1,30.08,ENE,60,5.0,10.0,61,0.00,,,0.00,Wunderground v.1.15,2013-02-23 03:27:00,
2013-02-22 21:33:00,43.5,31.3,30.08,NE,56,4.0,10.0,62,0.00,,,0.00,Wunderground v.1.15,2013-02-23 03:33:00,
2013-02-22 21:39:00,43.3,31.1,30.08,NE,49,4.0,10.0,62,0.00,,,0.00,Wunderground v.1.15,2013-02-23 03:39:00,
2013-02-22 21:45:00,43.2,31.1,30.08,NE,47,4.0,10.0,62,0.00,,,0.00,Wunderground v.1.15,2013-02-23 03:45:00,
2013-02-22 21:51:00,43.1,31.0,30.08,NE,49,4.0,10.0,62,0.00,,,0.00,Wunderground v.1.15,2013-02-23 03:51:00,
2013-02-22 21:57:00,42.9,30.8,30.08,NE,54,3.0,10.0,62,0.00,,,0.00,Wunderground v.1.15,2013-02-23 03:57:00,
2013-02-22 22:02:00,42.8,31.1,30.08,ENE,61,3.0,10.0,63,0.00,,,0.00,Wunderground v.1.15,2013-02-23 04:02:00,
2013-02-22 22:07:00,42.6,31.3,30.08,ENE,65,3.0,10.0,64,0.00,,,0.00,Wunderground v.1.15,2013-02-23 04:07:00,
2013-02-22 22:13:00,42.5,31.2,30.08,NE,56,3.0,10.0,64,0.00,,,0.00,Wunderground v.1.15,2013-02-23 04:13:00,
2013-02-22 22:19:00,42.4,31.1,30.08,NE,56,4.0,10.0,64,0.00,,,0.00,Wunderground v.1.15,2013-02-23 04:19:00,
2013-02-22 22:24:00,42.2,30.9,30.08,NE,51,3.0,10.0,64,0.00,,,0.00,Wunderground v.1.15,2013-02-23 04:24:00,